Time;durP1;ratioP1;P1;durP2;ratioP2;P2;SDS_P1;SDS_P2;PMS_P1;PMS_P2;Temp;Humidity;BMP_temperature;BMP_pressure;BME280_temperature;BME280_humidity;BME280_pressure;Samples;Min_cycle;Max_cycle;Signal;HPM_P1;HPM_P2
2022/05/20 00:03:25;;;;;;;6.45;5.15;;;;;;;20.64;76.97;100646.25;10371270;28;20053;-64
2022/05/20 00:08:27;;;;;;;5.68;5.15;;;;;;;20.58;77.13;100647.00;10373133;28;20120;-64
2022/05/20 00:13:29;;;;;;;8.10;5.25;;;;;;;20.52;77.32;100642.31;10371650;28;20072;-64
2022/05/20 00:18:30;;;;;;;7.22;5.43;;;;;;;20.29;77.48;100597.16;10370423;28;20468;-62
2022/05/20 00:23:32;;;;;;;7.53;5.05;;;;;;;20.37;77.28;100605.25;10369393;28;20147;-64
2022/05/20 00:28:34;;;;;;;7.38;5.43;;;;;;;20.45;77.34;100617.84;10370896;28;20076;-63
2022/05/20 00:33:37;;;;;;;7.00;5.50;;;;;;;20.44;77.53;100627.81;10370391;28;20057;-64
2022/05/20 00:38:39;;;;;;;;;;;;;;;20.43;77.70;100645.06;10370524;28;20046;-64
2022/05/20 00:43:50;;;;;;;6.10;5.53;;;;;;;20.45;77.91;100656.53;10370992;28;19925;-64
2022/05/20 00:49:02;;;;;;;9.90;6.22;;;;;;;20.47;78.11;100649.06;10367770;28;20045;-63
2022/05/20 00:54:10;;;;;;;7.13;6.20;;;;;;;20.43;77.99;100630.69;10370159;28;20235;-63
2022/05/20 00:59:17;;;;;;;7.80;6.90;;;;;;;20.40;78.35;100625.66;10370995;28;20496;-63
2022/05/20 01:04:20;;;;;;;7.88;7.07;;;;;;;20.41;78.84;100628.16;10372564;28;20045;-63
2022/05/20 01:09:21;;;;;;;8.70;6.78;;;;;;;20.33;78.00;100627.38;10370335;28;20053;-64
2022/05/20 01:14:25;;;;;;;8.10;6.50;;;;;;;20.17;78.49;100601.31;10373247;28;20412;-65
2022/05/20 01:19:44;;;;;;;8.93;6.68;;;;;;;20.36;79.07;100633.28;10383740;28;20847;-64
2022/05/20 01:24:45;;;;;;;8.02;6.00;;;;;;;20.36;79.35;100678.41;10370748;28;20621;-63
2022/05/20 01:29:46;;;;;;;8.18;7.13;;;;;;;20.37;79.06;100675.53;10368236;28;20053;-63
2022/05/20 01:34:48;;;;;;;8.43;6.15;;;;;;;20.24;80.22;100634.72;10369784;28;20057;-64
2022/05/20 01:39:50;;;;;;;8.43;6.82;;;;;;;20.09;79.69;100604.91;10367274;28;20083;-63
2022/05/20 01:44:59;;;;;;;7.88;7.07;;;;;;;20.24;80.37;100656.34;10370674;28;20147;-63
2022/05/20 01:50:09;;;;;;;7.47;6.40;;;;;;;20.25;80.93;100649.88;10367255;28;20051;-64
2022/05/20 01:55:16;;;;;;;7.68;6.88;;;;;;;20.23;80.42;100639.25;10365246;28;20119;-64
2022/05/20 02:00:25;;;;;;;11.75;7.70;;;;;;;20.19;80.45;100626.28;10368653;28;20045;-63
2022/05/20 02:05:36;;;;;;;7.40;6.60;;;;;;;20.21;80.96;100651.28;10378523;28;20734;-64
2022/05/20 02:10:44;;;;;;;6.63;5.97;;;;;;;20.18;80.63;100632.72;10371071;28;20046;-63
2022/05/20 02:15:59;;;;;;;9.27;7.32;;;;;;;20.12;81.05;100616.19;10371172;28;20140;-62
2022/05/20 02:21:08;;;;;;;7.20;6.40;;;;;;;20.12;81.20;100612.66;10368693;28;20053;-63
2022/05/20 02:26:14;;;;;;;8.32;6.95;;;;;;;20.00;80.25;100628.41;10370060;28;20052;-63
2022/05/20 02:31:25;;;;;;;7.57;6.78;;;;;;;20.02;81.62;100653.38;10368247;28;20053;-62
2022/05/20 02:36:32;;;;;;;8.57;6.90;;;;;;;19.97;81.38;100639.56;10369297;28;20578;-63
2022/05/20 02:41:33;;;;;;;8.15;6.75;;;;;;;19.97;81.52;100647.69;10369214;28;20068;-63
2022/05/20 02:46:36;;;;;;;9.07;7.45;;;;;;;20.00;81.38;100646.50;10366191;28;20084;-64
2022/05/20 02:51:38;;;;;;;9.82;7.50;;;;;;;19.98;80.81;100670.94;10368562;28;20057;-63
2022/05/20 02:56:40;;;;;;;7.68;6.10;;;;;;;19.99;80.27;100680.75;10366205;28;20041;-64
2022/05/20 03:07:02;;;;;;;6.40;5.82;;;;;;;19.73;82.75;100624.28;10369779;28;20128;-64
2022/05/20 03:12:05;;;;;;;7.28;5.95;;;;;;;19.61;83.94;100567.09;10371921;28;20111;-63
2022/05/20 03:17:06;;;;;;;5.65;5.03;;;;;;;19.77;82.78;100622.88;10382151;28;20274;-64
2022/05/20 03:22:08;;;;;;;7.03;5.75;;;;;;;19.78;83.08;100621.91;10384031;28;20403;-65
2022/05/20 03:27:10;;;;;;;6.45;5.30;;;;;;;19.78;81.88;100633.53;10377451;28;20047;-64
2022/05/20 03:32:13;;;;;;;7.97;4.65;;;;;;;19.52;82.89;100624.84;10373765;28;20129;-64
2022/05/20 03:37:14;;;;;;;6.45;5.40;;;;;;;19.70;83.46;100654.34;10374997;28;20484;-64
2022/05/20 03:42:16;;;;;;;6.00;5.40;;;;;;;19.66;82.46;100643.03;10374660;28;20188;-65
2022/05/20 03:47:18;;;;;;;7.38;5.85;;;;;;;19.36;82.58;100575.28;10375180;28;20049;-64
2022/05/20 03:52:19;;;;;;;7.22;6.00;;;;;;;19.53;83.17;100604.91;10373825;28;20544;-64
2022/05/20 03:57:21;;;;;;;6.90;5.93;;;;;;;19.19;83.63;100569.09;10374474;28;20059;-63
2022/05/20 04:02:22;;;;;;;6.70;5.72;;;;;;;19.43;83.53;100588.94;10373170;28;20049;-64
2022/05/20 04:07:26;;;;;;;9.95;6.70;;;;;;;19.40;83.29;100606.31;10373605;28;20065;-64
2022/05/20 04:12:31;;;;;;;5.97;5.38;;;;;;;19.40;82.08;100603.63;10372035;28;20640;-63
2022/05/20 04:17:33;;;;;;;8.63;5.80;;;;;;;19.37;82.98;100603.97;10369311;28;20058;-63
2022/05/20 04:22:37;;;;;;;6.05;5.07;;;;;;;19.46;83.00;100612.06;10370533;28;20504;-64
2022/05/20 04:27:39;;;;;;;6.05;5.47;;;;;;;19.31;82.88;100596.56;10371454;28;20144;-64
2022/05/20 04:32:41;;;;;;;6.80;5.03;;;;;;;19.56;82.94;100661.28;10375751;28;20045;-65
2022/05/20 04:37:42;;;;;;;7.32;5.60;;;;;;;19.55;83.18;100673.09;10373295;28;20053;-62
2022/05/20 04:48:04;;;;;;;6.43;5.93;;;;;;;19.51;82.43;100685.25;10369350;28;20053;-63
2022/05/20 04:53:06;;;;;;;7.85;6.18;;;;;;;19.33;83.79;100686.28;10370488;28;20476;-64
2022/05/20 04:58:08;;;;;;;6.95;6.25;;;;;;;19.15;83.47;100723.41;10370793;28;20526;-65
2022/05/20 05:03:15;;;;;;;8.90;7.07;;;;;;;19.11;85.96;100776.00;10370379;28;20061;-64
2022/05/20 05:08:17;;;;;;;9.27;7.10;;;;;;;19.05;87.48;100577.88;10369894;28;20107;-64
2022/05/20 05:13:18;;;;;;;8.95;8.15;;;;;;;18.97;87.45;100559.84;10370621;28;20112;-64
2022/05/20 05:18:23;;;;;;;9.10;7.93;;;;;;;18.92;87.57;100582.97;10368055;28;20049;-64
2022/05/20 05:23:25;;;;;;;8.15;7.38;;;;;;;18.89;88.64;100584.16;10367898;28;20164;-63
2022/05/20 05:28:26;;;;;;;8.95;7.57;;;;;;;18.92;89.02;100564.09;10369723;28;20046;-64
2022/05/20 05:33:28;;;;;;;8.43;6.85;;;;;;;18.99;89.23;100551.59;10367450;28;20051;-64
2022/05/20 05:38:29;;;;;;;11.35;8.35;;;;;;;19.06;89.74;100575.00;10369649;28;20053;-64
2022/05/20 05:43:31;;;;;;;6.78;5.93;;;;;;;19.23;89.13;100596.56;10367153;28;20064;-65
2022/05/20 05:48:32;;;;;;;8.18;6.30;;;;;;;19.35;88.38;100600.59;10367226;28;20046;-63
2022/05/20 05:53:34;;;;;;;9.55;6.70;;;;;;;19.43;88.61;100586.25;10369185;28;20141;-65
2022/05/20 05:58:36;;;;;;;5.78;5.28;;;;;;;19.52;87.94;100595.16;10369038;28;20050;-64
2022/05/20 06:03:37;;;;;;;5.78;5.20;;;;;;;19.60;87.30;100595.13;10366292;28;20049;-63
2022/05/20 06:08:38;;;;;;;7.25;5.05;;;;;;;19.54;85.78;100571.50;10367495;28;20594;-63
2022/05/20 06:13:40;;;;;;;6.22;4.97;;;;;;;19.51;85.97;100577.25;10365762;28;20055;-63
2022/05/20 06:18:42;;;;;;;6.10;4.45;;;;;;;19.84;85.22;100594.19;10367384;28;20277;-63
2022/05/20 06:23:43;;;;;;;5.05;4.35;;;;;;;20.06;84.40;100603.38;10364155;28;20519;-63
2022/05/20 06:28:45;;;;;;;6.50;3.92;;;;;;;19.92;83.82;100574.41;10366969;28;20059;-63
2022/05/20 06:33:46;;;;;;;4.75;3.90;;;;;;;20.13;84.06;100590.00;10366171;28;20049;-63
2022/05/20 06:44:07;;;;;;;7.57;4.30;;;;;;;20.13;82.69;100565.66;10366530;28;20150;-62
2022/05/20 06:49:09;;;;;;;5.78;4.95;;;;;;;19.88;83.45;100508.28;10368567;28;20053;-64
2022/05/20 06:54:11;;;;;;;6.88;5.28;;;;;;;20.35;83.08;100579.41;10374733;28;20049;-63
2022/05/20 06:59:12;;;;;;;6.75;5.88;;;;;;;20.24;85.53;100540.94;10373983;28;20715;-63
2022/05/20 07:04:14;;;;;;;6.53;5.18;;;;;;;20.52;83.02;100585.50;10376261;28;20477;-63
2022/05/20 07:09:15;;;;;;;11.57;6.45;;;;;;;20.49;81.20;100576.75;10374681;28;20088;-63
2022/05/20 07:14:17;;;;;;;8.15;5.68;;;;;;;20.59;81.50;100578.38;10373793;28;20045;-63
2022/05/20 07:19:18;;;;;;;8.38;7.30;;;;;;;20.72;81.16;100570.53;10371971;28;20353;-63
2022/05/20 07:24:20;;;;;;;6.90;6.20;;;;;;;21.02;80.11;100581.41;10371957;28;20485;-63
2022/05/20 07:29:21;;;;;;;7.20;6.03;;;;;;;20.96;79.01;100533.44;10372245;28;20057;-64
2022/05/20 07:34:22;;;;;;;8.95;6.50;;;;;;;21.39;80.30;100576.94;10372851;28;20057;-64
2022/05/20 07:39:24;;;;;;;8.23;6.97;;;;;;;21.47;77.44;100549.78;10370496;28;20059;-63
2022/05/20 07:44:26;;;;;;;7.85;6.68;;;;;;;21.70;75.44;100562.38;10373679;28;20176;-64
2022/05/20 07:49:27;;;;;;;9.80;7.60;;;;;;;21.83;76.96;100551.72;10371610;28;20058;-64
2022/05/20 07:54:32;;;;;;;9.27;7.60;;;;;;;22.10;75.85;100560.16;10372805;28;20060;-62
2022/05/20 07:59:51;;;;;;;8.35;7.57;;;;;;;22.20;76.20;100560.69;10371234;28;20055;-63
2022/05/20 08:04:56;;;;;;;8.02;7.22;;;;;;;22.42;76.26;100555.28;10373549;28;20072;-63
2022/05/20 08:09:59;;;;;;;9.50;8.65;;;;;;;22.59;74.97;100550.44;10369561;28;20206;-63
2022/05/20 08:15:01;;;;;;;9.70;8.90;;;;;;;22.50;74.84;100532.63;10371896;28;20598;-64
2022/05/20 08:20:07;;;;;;;9.57;8.68;;;;;;;22.53;75.33;100537.66;10372228;28;20758;-65
2022/05/20 08:25:09;;;;;;;10.57;8.35;;;;;;;22.82;76.09;100538.50;10376062;28;20053;-64
2022/05/20 08:30:21;;;;;;;9.68;8.95;;;;;;;23.03;73.46;100541.19;10375789;28;20081;-64
2022/05/20 08:35:23;;;;;;;9.60;8.55;;;;;;;23.23;72.62;100524.22;10382039;28;20129;-64
2022/05/20 08:40:32;;;;;;;11.40;9.43;;;;;;;23.32;71.09;100501.28;10368918;28;20049;-64
2022/05/20 08:45:34;;;;;;;11.40;10.30;;;;;;;23.53;70.85;100505.75;10368458;28;20452;-66
2022/05/20 08:50:46;;;;;;;13.98;12.63;;;;;;;23.52;69.98;100501.34;10367895;28;20061;-63
2022/05/20 08:55:47;;;;;;;12.68;11.38;;;;;;;23.70;71.32;100478.22;10368207;28;20646;-63
2022/05/20 09:00:49;;;;;;;10.57;9.68;;;;;;;24.21;69.52;100499.47;10367565;28;20054;-63
2022/05/20 09:06:02;;;;;;;12.67;11.37;;;;;;;24.62;69.37;100479.44;10367186;28;20168;-64
2022/05/20 09:11:11;;;;;;;12.30;11.10;;;;;;;25.06;67.22;100472.44;10364905;28;20551;-63
2022/05/20 09:16:16;;;;;;;12.80;11.50;;;;;;;25.44;65.50;100475.47;10370478;28;20367;-63
2022/05/20 09:21:33;;;;;;;11.73;10.63;;;;;;;25.43;64.16;100441.09;10369907;28;20511;-63
2022/05/20 09:26:41;;;;;;;11.80;10.70;;;;;;;25.72;63.10;100459.59;10368537;28;20501;-64
2022/05/20 09:31:48;;;;;;;12.40;11.10;;;;;;;25.83;62.60;100460.78;10372182;28;20055;-66
2022/05/20 09:36:57;;;;;;;11.50;10.48;;;;;;;25.99;64.15;100443.09;10371797;28;20421;-64
2022/05/20 09:42:04;;;;;;;15.98;10.65;;;;;;;26.42;63.49;100428.69;10364556;28;20045;-63
2022/05/20 09:47:29;;;;;;;11.18;10.27;;;;;;;26.93;60.18;100412.22;10366282;28;20416;-64
2022/05/20 09:52:59;;;;;;;11.55;10.55;;;;;;;27.05;57.96;100406.84;10365614;28;20045;-65
2022/05/20 09:58:21;;;;;;;11.13;10.13;;;;;;;27.48;58.18;100411.34;10367189;28;20345;-64
2022/05/20 10:03:30;;;;;;;10.18;8.95;;;;;;;27.57;58.34;100404.50;10368056;28;20500;-63
2022/05/20 10:08:57;;;;;;;9.75;8.93;;;;;;;27.98;55.64;100393.81;10370670;28;20139;-64
2022/05/20 10:14:09;;;;;;;10.43;9.43;;;;;;;28.34;53.67;100394.66;10364865;28;20441;-64
2022/05/20 10:19:11;;;;;;;10.80;9.38;;;;;;;28.54;53.00;100394.31;10366459;28;20512;-64
2022/05/20 10:24:31;;;;;;;8.65;7.75;;;;;;;28.71;51.88;100362.41;10366686;28;20504;-63
2022/05/20 10:35:13;;;;;;;6.65;6.15;;;;;;;28.91;51.53;100337.34;10365401;28;20053;-63
2022/05/20 10:40:14;;;;;;;9.82;6.10;;;;;;;28.71;47.42;100345.16;10367141;28;20610;-64
2022/05/20 10:51:36;;;;;;;5.47;3.35;;;;;;;28.94;41.54;100307.81;10366069;28;20143;-63
2022/05/20 10:56:56;;;;;;;6.15;2.97;;;;;;;29.39;40.24;100294.13;10369878;28;20064;-63
2022/05/20 11:02:24;;;;;;;7.68;3.83;;;;;;;29.16;40.28;100292.31;10368391;28;20057;-63
2022/05/20 11:08:10;;;;;;;8.30;4.03;;;;;;;29.15;40.57;100276.94;10369212;28;20149;-63
2022/05/20 11:13:27;;;;;;;6.38;4.03;;;;;;;29.26;42.22;100262.41;10369619;28;20077;-64
2022/05/20 11:18:43;;;;;;;4.72;4.22;;;;;;;29.34;42.37;100247.44;10365737;28;20560;-65
2022/05/20 11:24:14;;;;;;;6.28;5.15;;;;;;;29.70;41.82;100219.78;10367629;28;20512;-64
2022/05/20 11:29:38;;;;;;;8.70;5.25;;;;;;;30.01;41.86;100215.59;10363965;28;20045;-64
2022/05/20 11:35:00;;;;;;;5.57;4.82;;;;;;;29.84;41.57;100209.31;10366511;28;20481;-64
2022/05/20 11:40:05;;;;;;;;;;;;;;;29.90;42.83;100154.25;10373585;28;20149;-64
2022/05/20 11:45:24;;;;;;;7.95;5.20;;;;;;;30.36;41.81;100144.94;10372152;28;19925;-65
2022/05/20 11:50:34;;;;;;;8.00;5.38;;;;;;;30.62;41.93;100124.88;10373292;28;20255;-64
2022/05/20 11:55:43;;;;;;;8.10;4.70;;;;;;;30.56;43.29;100136.91;10373341;28;20053;-64
2022/05/20 12:00:46;;;;;;;7.57;5.00;;;;;;;29.94;43.08;100166.38;10373796;28;20077;-64
2022/05/20 12:05:54;;;;;;;8.93;5.93;;;;;;;29.60;43.91;100177.38;10381528;28;20511;-64
2022/05/20 12:10:55;;;;;;;9.55;5.80;;;;;;;29.03;44.05;100142.75;10374728;28;20041;-63
2022/05/20 12:16:17;;;;;;;6.27;5.67;;;;;;;28.96;44.83;100122.94;10375054;28;20632;-63
2022/05/20 12:26:49;;;;;;;8.65;5.75;;;;;;;29.35;43.71;100164.16;10378723;28;20060;-63
2022/05/20 12:31:50;;;;;;;6.68;5.97;;;;;;;29.12;44.33;100147.84;10372540;28;20121;-63
2022/05/20 12:36:52;;;;;;;7.53;6.43;;;;;;;28.71;44.36;100106.91;10371616;28;20480;-63
2022/05/20 12:41:53;;;;;;;8.20;6.23;;;;;;;29.03;44.33;100085.22;10368829;28;20049;-64
2022/05/20 12:47:27;;;;;;;14.93;6.60;;;;;;;29.56;44.29;100072.06;10370769;28;20207;-63
2022/05/20 12:52:45;;;;;;;7.00;5.53;;;;;;;29.78;43.39;100035.56;10370222;28;20125;-64
2022/05/20 12:57:50;;;;;;;8.57;5.55;;;;;;;30.21;42.15;100009.16;10373031;28;20053;-64
2022/05/20 13:02:54;;;;;;;6.55;5.07;;;;;;;30.18;42.23;99974.00;10371879;28;20488;-63
2022/05/20 13:07:58;;;;;;;9.02;6.05;;;;;;;30.43;41.50;99997.28;10372576;28;20045;-63
2022/05/20 13:13:04;;;;;;;6.85;5.53;;;;;;;29.95;42.85;100002.56;10371874;28;20103;-65
2022/05/20 13:18:12;;;;;;;6.43;5.35;;;;;;;29.30;43.80;100073.59;10371373;28;20055;-63
2022/05/20 13:23:25;;;;;;;8.00;5.95;;;;;;;28.59;45.76;100149.91;10368061;28;20136;-64
2022/05/20 13:28:30;;;;;;;10.13;5.75;;;;;;;28.48;46.55;100099.59;10371680;28;20427;-64
2022/05/20 13:33:34;;;;;;;8.65;6.22;;;;;;;28.72;47.05;100105.81;10372725;28;20140;-64
2022/05/20 13:38:43;;;;;;;8.95;5.57;;;;;;;28.58;47.06;100099.78;10371373;28;20053;-64
2022/05/20 13:43:44;;;;;;;6.53;5.32;;;;;;;28.42;48.50;100093.22;10364984;28;20045;-64
2022/05/20 13:54:27;;;;;;;8.73;6.25;;;;;;;27.62;48.77;99982.78;10369250;28;20041;-64
2022/05/20 13:59:32;;;;;;;7.35;6.38;;;;;;;27.71;51.05;100014.13;10370532;28;20156;-64
2022/05/20 14:04:50;;;;;;;6.13;5.47;;;;;;;27.71;52.46;100035.19;10373922;28;20049;-64
2022/05/20 14:10:00;;;;;;;10.25;7.32;;;;;;;27.56;52.24;100019.28;10368165;28;20050;-64
2022/05/20 14:15:06;;;;;;;7.75;6.88;;;;;;;27.48;53.14;100021.31;10370494;28;20491;-64
2022/05/20 14:20:12;;;;;;;7.10;6.40;;;;;;;27.50;53.66;100019.19;10368285;28;20053;-64
2022/05/20 14:25:29;;;;;;;7.95;6.13;;;;;;;27.42;53.71;100010.53;10370067;28;20195;-64
2022/05/20 14:30:44;;;;;;;9.60;7.03;;;;;;;27.34;53.67;99970.75;10372110;28;20124;-64
2022/05/20 14:35:49;;;;;;;7.10;6.10;;;;;;;27.13;54.09;99934.78;10377053;28;20152;-64
2022/05/20 14:40:53;;;;;;;8.15;6.40;;;;;;;27.08;54.82;99918.28;10371826;28;20057;-64
2022/05/20 14:45:58;;;;;;;10.07;6.13;;;;;;;27.09;55.04;99914.47;10368378;28;20538;-63
2022/05/20 14:51:00;;;;;;;9.52;6.95;;;;;;;27.08;54.97;99915.56;10368090;28;20108;-61
2022/05/20 14:56:02;;;;;;;8.83;6.97;;;;;;;27.13;54.91;99921.13;10369173;28;20049;-63
2022/05/20 15:01:13;;;;;;;13.13;7.18;;;;;;;27.17;54.29;99905.91;10368501;28;20053;-63
2022/05/20 15:06:20;;;;;;;6.25;5.68;;;;;;;27.48;53.75;99905.72;10369369;28;20053;-64
2022/05/20 15:11:29;;;;;;;6.57;5.97;;;;;;;27.72;52.72;99906.44;10373379;28;20140;-63
2022/05/20 15:16:30;;;;;;;8.80;5.03;;;;;;;27.69;51.02;99879.59;10375625;28;20506;-64
2022/05/20 15:21:34;;;;;;;7.15;3.80;;;;;;;27.69;49.66;99868.66;10378557;28;20064;-64
2022/05/20 15:26:38;;;;;;;7.75;3.78;;;;;;;27.81;48.19;99872.13;10379649;28;20128;-64
2022/05/20 15:37:14;;;;;;;6.65;3.28;;;;;;;27.55;47.53;99864.56;10375515;28;20073;-63
2022/05/20 15:42:19;;;;;;;5.22;3.63;;;;;;;27.50;48.76;99852.47;10371772;28;20095;-63
2022/05/20 15:47:21;;;;;;;6.70;4.28;;;;;;;27.33;49.46;99844.22;10376096;28;20139;-63
2022/05/20 15:52:25;;;;;;;;;;;;;;;27.30;50.39;99843.84;10376327;28;20813;-63
2022/05/20 15:57:29;;;;;;;4.35;3.95;;;;;;;27.07;50.05;99831.09;10376201;28;19925;-63
2022/05/20 16:02:31;;;;;;;3.38;2.92;;;;;;;26.83;48.96;99830.34;10380957;28;20569;-63
2022/05/20 16:07:33;;;;;;;4.75;3.20;;;;;;;26.76;49.34;99834.03;10380019;28;20058;-64
2022/05/20 16:12:34;;;;;;;10.00;4.07;;;;;;;26.42;49.59;99783.88;10381164;28;20136;-63
2022/05/20 16:17:36;;;;;;;5.63;3.67;;;;;;;26.65;50.27;99804.84;10374616;28;20564;-63
2022/05/20 16:22:39;;;;;;;6.55;3.90;;;;;;;26.55;51.04;99796.44;10372033;28;20061;-64
2022/05/20 16:27:45;;;;;;;8.98;3.55;;;;;;;26.50;51.06;99807.22;10373434;28;20214;-63
2022/05/20 16:32:47;;;;;;;8.48;4.22;;;;;;;26.43;51.77;99808.19;10373355;28;20099;-64
2022/05/20 16:37:51;;;;;;;5.90;3.70;;;;;;;26.33;51.94;99799.78;10373804;28;20194;-64
2022/05/20 16:42:52;;;;;;;5.40;3.53;;;;;;;26.52;51.10;99792.28;10372029;28;20128;-64
2022/05/20 16:48:04;;;;;;;7.78;3.53;;;;;;;26.57;49.88;99797.03;10372737;28;20057;-64
2022/05/20 16:53:06;;;;;;;7.38;2.55;;;;;;;26.69;45.16;99792.38;10370433;28;20140;-64
2022/05/20 17:03:27;;;;;;;5.13;2.53;;;;;;;26.84;41.69;99736.44;10368906;28;20290;-63
2022/05/20 17:08:34;;;;;;;7.05;3.30;;;;;;;26.83;42.24;99715.69;10380712;28;20049;-63
2022/05/20 17:13:42;;;;;;;6.30;2.50;;;;;;;26.83;41.66;99723.88;10369912;28;20135;-64
2022/05/20 17:18:43;;;;;;;7.25;2.33;;;;;;;26.56;42.03;99700.69;10370744;28;20057;-63
2022/05/20 17:29:04;;;;;;;5.70;2.55;;;;;;;26.60;42.20;99748.25;10372758;28;20061;-65
2022/05/20 17:34:06;;;;;;;6.25;2.45;;;;;;;26.54;42.53;99738.31;10373086;28;20136;-64
2022/05/20 17:39:09;;;;;;;10.32;3.08;;;;;;;26.49;42.75;99721.00;10372183;28;20054;-64
2022/05/20 17:44:10;;;;;;;7.72;2.85;;;;;;;26.44;43.64;99754.47;10373494;28;20069;-63
2022/05/20 17:49:11;;;;;;;6.85;3.55;;;;;;;26.36;43.85;99741.19;10375713;28;20117;-64
2022/05/20 17:54:13;;;;;;;6.63;2.92;;;;;;;26.28;43.93;99734.19;10380696;28;20128;-64
2022/05/20 17:59:16;;;;;;;6.63;2.67;;;;;;;26.19;44.64;99719.28;10371099;28;20049;-64
2022/05/20 18:04:17;;;;;;;7.82;2.83;;;;;;;26.10;44.92;99749.63;10370840;28;20560;-64
2022/05/20 18:09:21;;;;;;;9.80;4.07;;;;;;;26.06;46.38;99778.47;10369511;28;20054;-64
2022/05/20 18:14:22;;;;;;;9.18;3.42;;;;;;;25.93;47.60;99825.00;10369650;28;20165;-64
2022/05/20 18:19:24;;;;;;;8.80;2.92;;;;;;;25.22;54.68;99854.72;10367718;28;20131;-64
2022/05/20 18:24:25;;;;;;;8.90;3.33;;;;;;;24.35;60.58;99905.50;10369349;28;20065;-64
2022/05/20 18:29:30;;;;;;;4.22;3.28;;;;;;;23.95;63.01;99919.38;10368351;28;20057;-65
2022/05/20 18:39:52;;;;;;;5.50;2.53;;;;;;;23.57;65.57;99966.41;10368187;28;20050;-65
2022/05/20 18:44:53;;;;;;;3.25;1.80;;;;;;;23.65;64.68;99985.16;10371814;28;20056;-64
2022/05/20 18:49:55;;;;;;;4.93;2.65;;;;;;;23.35;65.37;99974.00;10378202;28;20079;-64
2022/05/20 18:54:57;;;;;;;3.00;1.40;;;;;;;23.08;66.71;99978.66;10377112;28;20046;-64
2022/05/20 18:59:58;;;;;;;3.47;1.80;;;;;;;22.95;69.63;100003.94;10375487;28;20057;-69
2022/05/20 19:05:00;;;;;;;2.25;1.50;;;;;;;23.07;70.00;100031.25;10376422;28;20060;-64
2022/05/20 19:10:02;;;;;;;5.90;1.75;;;;;;;23.04;68.71;100042.53;10376675;28;20051;-64
2022/05/20 19:15:05;;;;;;;4.07;1.45;;;;;;;22.67;69.23;100024.00;10375607;28;20127;-64
2022/05/20 19:20:07;;;;;;;1.60;1.13;;;;;;;22.70;68.49;100075.13;10375752;28;20053;-63
2022/05/20 19:25:09;;;;;;;3.78;1.50;;;;;;;22.60;69.93;100105.34;10374997;28;20053;-64
2022/05/20 19:30:12;;;;;;;2.40;1.20;;;;;;;22.41;68.81;100112.44;10376616;28;20056;-64
2022/05/20 19:35:16;;;;;;;1.75;1.38;;;;;;;22.27;69.22;100123.41;10376092;28;20419;-65
2022/05/20 19:40:18;;;;;;;1.48;1.15;;;;;;;22.02;70.33;100115.78;10379759;28;21776;-64
2022/05/20 19:45:20;;;;;;;1.27;1.00;;;;;;;21.75;68.53;100099.41;10375864;28;20072;-63
2022/05/20 19:50:22;;;;;;;2.05;1.23;;;;;;;21.97;68.34;100145.38;10375078;28;20049;-65
2022/05/20 19:55:23;;;;;;;2.42;1.50;;;;;;;22.04;69.01;100138.13;10376457;28;20074;-64
2022/05/20 20:00:45;;;;;;;3.30;1.40;;;;;;;21.92;68.80;100154.13;10374647;28;20049;-65
2022/05/20 20:05:46;;;;;;;3.42;1.55;;;;;;;21.97;68.47;100153.50;10374356;28;20049;-64
2022/05/20 20:10:49;;;;;;;5.30;1.50;;;;;;;21.88;68.03;100169.91;10375033;28;20064;-65
2022/05/20 20:15:51;;;;;;;3.50;1.83;;;;;;;21.89;69.01;100171.59;10373124;28;20073;-65
2022/05/20 20:20:53;;;;;;;1.43;1.33;;;;;;;21.63;68.02;100163.31;10373975;28;20391;-63
2022/05/20 20:26:06;;;;;;;2.70;1.80;;;;;;;21.31;68.69;100176.38;10373559;28;20132;-64
2022/05/20 20:31:13;;;;;;;3.20;1.30;;;;;;;21.33;68.72;100179.72;10373247;28;20139;-64
2022/05/20 20:36:17;;;;;;;2.47;2.10;;;;;;;21.35;69.49;100186.63;10374151;28;20566;-64
2022/05/20 20:41:18;;;;;;;;;;;;;;;21.50;67.52;100205.50;10372030;28;20054;-64
2022/05/20 20:46:19;;;;;;;1.65;1.30;;;;;;;21.21;67.77;100224.59;10372706;28;19988;-64
2022/05/20 20:51:21;;;;;;;2.28;1.77;;;;;;;21.21;67.08;100238.94;10371674;28;20129;-64
2022/05/20 20:56:23;;;;;;;3.08;1.50;;;;;;;20.58;66.52;100215.19;10373977;28;20073;-64
2022/05/20 21:01:26;;;;;;;1.95;1.50;;;;;;;20.81;63.03;100269.16;10370903;28;20561;-64
2022/05/20 21:06:28;;;;;;;;;;;;;;;20.31;61.35;100268.06;10370296;28;20217;-64
2022/05/20 21:11:30;;;;;;;3.30;1.55;;;;;;;20.34;62.33;100281.19;10368008;28;19983;-64
2022/05/20 21:16:32;;;;;;;3.38;1.33;;;;;;;19.93;63.15;100290.56;10371438;28;20329;-63
2022/05/20 21:21:33;;;;;;;1.73;1.38;;;;;;;20.03;61.50;100305.72;10372161;28;20432;-64
2022/05/20 21:26:35;;;;;;;3.80;1.60;;;;;;;19.49;63.15;100320.97;10373618;28;20088;-65
2022/05/20 21:31:36;;;;;;;2.95;1.63;;;;;;;19.23;63.18;100349.16;10374688;28;20145;-64
2022/05/20 21:36:38;;;;;;;1.70;1.60;;;;;;;18.95;63.40;100353.38;10376109;28;20496;-66
2022/05/20 21:41:41;;;;;;;;;;;;;;;19.28;63.28;100372.91;10375300;28;20064;-65
2022/05/20 21:46:52;;;;;;;1.60;1.50;;;;;;;18.92;62.12;100335.66;10370314;28;20300;-65
2022/05/20 21:51:57;;;;;;;1.42;1.15;;;;;;;18.93;61.93;100347.28;10367197;28;20049;-64
2022/05/20 21:57:00;;;;;;;1.58;1.48;;;;;;;19.19;62.12;100398.25;10370115;28;20137;-64
2022/05/20 22:12:44;;;;;;;1.83;1.30;;;;;;;18.63;62.07;100414.44;10372519;28;20264;-64
2022/05/20 22:17:46;;;;;;;3.67;1.70;;;;;;;18.67;61.97;100423.88;10369783;28;20080;-65
2022/05/20 22:22:47;;;;;;;2.40;1.40;;;;;;;18.62;61.95;100432.47;10367969;28;20821;-66
2022/05/20 22:27:49;;;;;;;4.60;1.35;;;;;;;18.65;62.00;100442.91;10368446;28;20148;-65
2022/05/20 22:32:50;;;;;;;1.60;1.50;;;;;;;18.41;62.39;100451.06;10366694;28;20500;-64
2022/05/20 22:37:52;;;;;;;1.58;1.45;;;;;;;18.14;63.19;100434.22;10368666;28;20057;-66
2022/05/20 22:42:55;;;;;;;2.70;2.50;;;;;;;18.23;62.12;100457.44;10369235;28;20164;-64
2022/05/20 22:47:56;;;;;;;2.23;2.03;;;;;;;17.93;62.83;100438.25;10366483;28;20564;-65
2022/05/20 22:52:58;;;;;;;2.25;2.05;;;;;;;18.05;62.05;100472.94;10368227;28;20286;-65
2022/05/20 22:57:59;;;;;;;2.47;1.90;;;;;;;18.11;61.37;100464.19;10366726;28;20176;-64
2022/05/20 23:03:01;;;;;;;1.42;1.00;;;;;;;18.07;61.24;100484.38;10365951;28;20049;-64
2022/05/20 23:08:04;;;;;;;1.67;1.20;;;;;;;17.99;60.14;100491.44;10367094;28;20059;-64
2022/05/20 23:13:06;;;;;;;2.33;0.85;;;;;;;17.74;60.59;100500.44;10365907;28;20522;-63
2022/05/20 23:18:08;;;;;;;0.80;0.60;;;;;;;17.88;60.49;100507.03;10367158;28;20412;-64
2022/05/20 23:23:12;;;;;;;0.85;0.63;;;;;;;17.86;60.02;100515.28;10366428;28;20063;-64
2022/05/20 23:28:14;;;;;;;1.43;0.90;;;;;;;17.69;58.62;100522.47;10368168;28;20093;-64
2022/05/20 23:33:15;;;;;;;0.82;0.57;;;;;;;17.79;58.81;100522.31;10372079;28;20456;-64
2022/05/20 23:38:17;;;;;;;0.55;0.30;;;;;;;17.97;57.32;100533.84;10372665;28;20111;-64
2022/05/20 23:43:20;;;;;;;0.47;0.30;;;;;;;17.70;56.62;100528.69;10372687;28;20114;-64
2022/05/20 23:48:21;;;;;;;1.85;0.20;;;;;;;17.85;57.23;100533.28;10372910;28;20068;-63
2022/05/20 23:53:23;;;;;;;0.50;0.40;;;;;;;17.72;56.49;100507.84;10372854;28;20244;-63
2022/05/20 23:58:24;;;;;;;3.40;0.60;;;;;;;18.07;55.33;100535.56;10373728;28;20332;-63
